createdAt,value
2023-02-24T00:00:47.606Z,9.94
2023-02-24T00:01:45.799Z,10.05
2023-02-24T00:02:49.069Z,9.94
2023-02-24T00:03:45.840Z,9.85
2023-02-24T00:04:45.846Z,9.84
2023-02-24T00:05:45.889Z,9.8
2023-02-24T00:06:45.844Z,9.87
2023-02-24T00:07:48.915Z,9.87
2023-02-24T00:08:45.802Z,9.74
2023-02-24T00:09:45.839Z,9.9
2023-02-24T00:10:45.788Z,9.85
2023-02-24T00:11:45.843Z,9.8
2023-02-24T00:12:45.837Z,9.87
2023-02-24T00:13:45.924Z,9.84
2023-02-24T00:14:46.077Z,9.81
2023-02-24T00:15:45.810Z,9.84
2023-02-24T00:16:46.122Z,9.9
2023-02-24T00:17:45.847Z,9.81
2023-02-24T00:18:48.618Z,9.9
2023-02-24T00:19:45.866Z,9.81
2023-02-24T00:20:45.810Z,9.7
2023-02-24T00:21:45.826Z,9.91
2023-02-24T00:22:45.866Z,9.9
2023-02-24T00:23:45.850Z,9.85
2023-02-24T00:24:45.872Z,9.87
2023-02-24T00:25:45.826Z,9.81
2023-02-24T00:26:45.845Z,9.82
2023-02-24T00:27:45.866Z,9.9
2023-02-24T00:28:45.836Z,9.81
2023-02-24T00:29:47.188Z,9.92
2023-02-24T00:30:45.977Z,9.88
2023-02-24T00:31:49.524Z,9.87
2023-02-24T00:32:46.372Z,9.72
2023-02-24T00:33:45.924Z,9.8
2023-02-24T00:34:45.924Z,9.84
2023-02-24T00:35:45.872Z,9.84
2023-02-24T00:36:45.858Z,9.81
2023-02-24T00:37:45.893Z,9.87
2023-02-24T00:38:45.881Z,9.88
2023-02-24T00:39:46.767Z,9.74
2023-02-24T00:40:48.663Z,9.8
2023-02-24T00:41:45.864Z,9.84
2023-02-24T00:42:45.862Z,9.8
2023-02-24T00:43:45.868Z,9.88
2023-02-24T00:44:45.908Z,9.9
2023-02-24T00:45:45.896Z,9.84
2023-02-24T00:46:46.094Z,9.81
2023-02-24T00:47:45.866Z,9.76
2023-02-24T00:48:45.918Z,9.7
2023-02-24T00:49:45.916Z,9.7
2023-02-24T00:50:45.877Z,9.69
2023-02-24T00:51:48.925Z,9.81
2023-02-24T00:52:45.906Z,9.76
2023-02-24T00:53:45.938Z,9.72
2023-02-24T00:54:45.987Z,9.81
2023-02-24T00:55:45.923Z,9.7
2023-02-24T00:56:45.964Z,9.82
2023-02-24T00:57:45.928Z,9.72
2023-02-24T00:58:45.897Z,9.84
2023-02-24T00:59:45.880Z,9.74
2023-02-24T01:00:45.880Z,9.69
2023-02-24T01:01:46.218Z,9.73
2023-02-24T01:02:48.682Z,9.74
2023-02-24T01:03:46.142Z,9.77
2023-02-24T01:04:45.898Z,9.74
2023-02-24T01:05:45.902Z,9.7
2023-02-24T01:06:45.927Z,9.76
2023-02-24T01:07:45.920Z,9.72
2023-02-24T01:08:45.893Z,9.76
2023-02-24T01:09:45.945Z,9.73
2023-02-24T01:10:45.994Z,9.81
2023-02-24T01:11:46.088Z,9.74
2023-02-24T01:12:45.895Z,9.81
2023-02-24T01:13:48.992Z,9.82
2023-02-24T01:14:45.933Z,9.8
2023-02-24T01:15:45.987Z,9.72
2023-02-24T01:16:45.927Z,9.76
2023-02-24T01:17:45.899Z,9.69
2023-02-24T01:18:45.933Z,9.73
2023-02-24T01:19:45.942Z,9.74
2023-02-24T01:20:45.924Z,9.69
2023-02-24T01:21:45.979Z,9.74
2023-02-24T01:22:45.937Z,9.72
2023-02-24T01:23:45.943Z,9.81
2023-02-24T01:24:46.110Z,9.7
2023-02-24T01:25:47.835Z,9.64
2023-02-24T01:26:45.995Z,9.7
2023-02-24T01:27:46.008Z,9.69
2023-02-24T01:28:45.936Z,9.69
2023-02-24T01:29:45.943Z,9.66
2023-02-24T01:30:45.966Z,9.69
2023-02-24T01:31:48.726Z,9.66
2023-02-24T01:32:46.887Z,9.82
2023-02-24T01:33:45.927Z,9.8
2023-02-24T01:34:45.956Z,9.81
2023-02-24T01:35:45.948Z,9.7
2023-02-24T01:36:45.937Z,9.67
2023-02-24T01:37:45.945Z,9.73
2023-02-24T01:38:45.962Z,9.59
2023-02-24T01:39:45.946Z,9.7
2023-02-24T01:40:46.005Z,9.62
2023-02-24T01:41:45.985Z,9.7
2023-02-24T01:42:46.017Z,9.74
2023-02-24T01:43:45.991Z,9.76
2023-02-24T01:44:46.101Z,9.76
2023-02-24T01:45:48.884Z,9.67
2023-02-24T01:46:46.156Z,9.76
2023-02-24T01:47:45.997Z,9.77
2023-02-24T01:48:45.987Z,9.8
2023-02-24T01:49:45.994Z,9.69
2023-02-24T01:50:46.136Z,9.8
2023-02-24T01:51:45.977Z,9.8
2023-02-24T01:52:46.035Z,9.7
2023-02-24T01:53:46.036Z,9.8
2023-02-24T01:54:46.032Z,9.77
2023-02-24T01:55:46.020Z,9.7
2023-02-24T01:56:48.820Z,9.8
2023-02-24T01:57:45.990Z,9.74
2023-02-24T01:58:46.224Z,9.76
2023-02-24T01:59:46.057Z,9.8
2023-02-24T02:00:45.991Z,9.8
2023-02-24T02:01:49.446Z,9.74
2023-02-24T02:02:46.634Z,9.77
2023-02-24T02:03:46.002Z,9.87
2023-02-24T02:04:46.221Z,9.8
2023-02-24T02:05:45.982Z,9.81
2023-02-24T02:06:46.112Z,9.81
2023-02-24T02:07:49.047Z,9.67
2023-02-24T02:08:46.020Z,9.72
2023-02-24T02:09:46.035Z,9.73
2023-02-24T02:10:46.012Z,9.7
2023-02-24T02:11:46.011Z,9.69
2023-02-24T02:12:49.502Z,9.77
2023-02-24T02:13:46.206Z,9.74
2023-02-24T02:14:46.096Z,9.77
2023-02-24T02:15:46.208Z,9.73
2023-02-24T02:16:46.041Z,9.82
2023-02-24T02:17:46.034Z,9.85
2023-02-24T02:18:49.096Z,9.81
2023-02-24T02:19:46.058Z,9.87
2023-02-24T02:20:46.102Z,9.87
2023-02-24T02:21:46.023Z,9.77
2023-02-24T02:22:46.025Z,9.87
2023-02-24T02:23:48.769Z,9.85
2023-02-24T02:24:46.054Z,9.87
2023-02-24T02:25:46.057Z,9.91
2023-02-24T02:26:46.104Z,9.82
2023-02-24T02:27:46.028Z,9.74
2023-02-24T02:28:46.070Z,9.88
2023-02-24T02:29:46.028Z,9.87
2023-02-24T02:30:46.447Z,9.82
2023-02-24T02:31:46.845Z,9.87
2023-02-24T02:32:46.472Z,9.82
2023-02-24T02:33:46.045Z,9.82
2023-02-24T02:34:48.919Z,9.85
2023-02-24T02:35:46.149Z,9.76
2023-02-24T02:36:46.067Z,9.84
2023-02-24T02:37:46.038Z,9.87
2023-02-24T02:38:46.028Z,9.72
2023-02-24T02:39:46.083Z,9.82
2023-02-24T02:40:46.158Z,9.88
2023-02-24T02:41:46.070Z,9.92
2023-02-24T02:42:46.091Z,9.87
2023-02-24T02:43:46.113Z,9.84
2023-02-24T02:44:46.075Z,9.8
2023-02-24T02:45:49.877Z,9.88
2023-02-24T02:46:46.052Z,9.8
2023-02-24T02:47:46.116Z,9.82
2023-02-24T02:48:46.072Z,9.9
2023-02-24T02:49:46.067Z,9.82
2023-02-24T02:50:46.162Z,9.84
2023-02-24T02:51:46.097Z,9.82
2023-02-24T02:52:46.101Z,9.76
2023-02-24T02:53:46.090Z,9.91
2023-02-24T02:54:46.119Z,9.72
2023-02-24T02:55:46.079Z,9.82
2023-02-24T02:56:49.091Z,9.84
2023-02-24T02:57:46.080Z,9.84
2023-02-24T02:58:46.088Z,9.74
2023-02-24T02:59:46.095Z,9.82
2023-02-24T03:00:46.247Z,9.82
2023-02-24T03:01:46.189Z,9.8
2023-02-24T03:02:46.103Z,9.77
2023-02-24T03:03:46.124Z,9.69
2023-02-24T03:04:46.225Z,9.74
2023-02-24T03:05:46.108Z,9.77
2023-02-24T03:06:46.111Z,9.84
2023-02-24T03:07:48.866Z,9.76
2023-02-24T03:08:46.093Z,9.8
2023-02-24T03:09:46.101Z,9.67
2023-02-24T03:10:46.114Z,9.73
2023-02-24T03:11:46.125Z,9.67
2023-02-24T03:12:46.144Z,9.72
2023-02-24T03:13:46.097Z,9.77
2023-02-24T03:14:46.122Z,9.77
2023-02-24T03:15:46.163Z,9.7
2023-02-24T03:16:46.367Z,9.7
2023-02-24T03:17:46.210Z,9.77
2023-02-24T03:18:49.052Z,9.64
2023-02-24T03:19:46.144Z,9.74
2023-02-24T03:20:46.174Z,9.72
2023-02-24T03:21:46.150Z,9.8
2023-02-24T03:22:46.125Z,9.74
2023-02-24T03:23:46.147Z,9.76
2023-02-24T03:24:46.124Z,9.8
2023-02-24T03:25:46.160Z,9.76
2023-02-24T03:26:46.142Z,9.77
2023-02-24T03:27:46.132Z,9.67
2023-02-24T03:28:46.126Z,9.69
2023-02-24T03:29:49.292Z,9.67
2023-02-24T03:30:46.303Z,9.74
2023-02-24T03:31:46.686Z,9.69
2023-02-24T03:32:46.882Z,9.7
2023-02-24T03:33:46.203Z,9.7
2023-02-24T03:34:46.119Z,9.74
2023-02-24T03:35:46.217Z,9.72
2023-02-24T03:36:46.157Z,9.69
2023-02-24T03:37:46.184Z,9.69
2023-02-24T03:38:46.154Z,9.73
2023-02-24T03:39:46.132Z,9.69
2023-02-24T03:40:47.033Z,9.7
2023-02-24T03:41:46.174Z,9.51
2023-02-24T03:42:46.152Z,9.51
2023-02-24T03:43:46.179Z,9.51
2023-02-24T03:44:46.158Z,9.48
2023-02-24T03:45:46.396Z,9.56
2023-02-24T03:46:46.148Z,9.45
2023-02-24T03:47:46.194Z,9.56
2023-02-24T03:48:46.186Z,9.59
2023-02-24T03:49:46.197Z,9.58
2023-02-24T03:50:46.183Z,9.51
2023-02-24T03:51:46.192Z,9.49
2023-02-24T03:52:46.174Z,9.47
2023-02-24T03:53:46.170Z,9.42
2023-02-24T03:54:46.159Z,9.45
2023-02-24T03:55:46.190Z,9.49
2023-02-24T03:56:46.183Z,9.48
2023-02-24T03:57:46.201Z,9.42
2023-02-24T03:58:46.214Z,9.54
2023-02-24T03:59:46.172Z,9.47
2023-02-24T04:00:46.228Z,9.44
2023-02-24T04:01:46.171Z,9.51
2023-02-24T04:02:46.388Z,9.49
2023-02-24T04:03:46.207Z,9.37
2023-02-24T04:04:46.567Z,9.39
2023-02-24T04:05:46.194Z,9.48
2023-02-24T04:06:46.181Z,9.48
2023-02-24T04:07:46.255Z,9.39
2023-02-24T04:08:46.189Z,9.51
2023-02-24T04:09:46.183Z,9.45
2023-02-24T04:10:46.227Z,9.48
2023-02-24T04:11:46.197Z,9.49
2023-02-24T04:12:46.572Z,9.47
2023-02-24T04:13:46.217Z,9.49
2023-02-24T04:14:46.250Z,9.49
2023-02-24T04:15:46.543Z,9.49
2023-02-24T04:16:46.239Z,9.47
2023-02-24T04:17:46.252Z,9.42
2023-02-24T04:18:46.365Z,9.4
2023-02-24T04:19:46.230Z,9.26
2023-02-24T04:20:46.240Z,9.16
2023-02-24T04:21:46.240Z,9.3
2023-02-24T04:22:46.213Z,9.3
2023-02-24T04:23:49.276Z,9.26
2023-02-24T04:24:46.221Z,9.27
2023-02-24T04:25:46.224Z,9.26
2023-02-24T04:26:46.224Z,9.15
2023-02-24T04:27:46.225Z,9.18
2023-02-24T04:28:46.245Z,9.22
2023-02-24T04:29:46.222Z,9.22
2023-02-24T04:30:46.685Z,9.27
2023-02-24T04:31:46.890Z,9.3
2023-02-24T04:32:46.389Z,9.31
2023-02-24T04:33:46.239Z,9.31
2023-02-24T04:34:49.466Z,9.27
2023-02-24T04:35:46.270Z,9.29
2023-02-24T04:36:46.277Z,9.19
2023-02-24T04:37:46.271Z,9.21
2023-02-24T04:38:46.243Z,9.19
2023-02-24T04:39:49.051Z,9.21
2023-02-24T04:40:46.246Z,9.21
2023-02-24T04:41:46.253Z,9.13
2023-02-24T04:42:46.226Z,9.08
2023-02-24T04:43:46.244Z,9.09
2023-02-24T04:44:46.272Z,9.03
2023-02-24T04:45:49.371Z,9.11
2023-02-24T04:46:46.539Z,9.08
2023-02-24T04:47:46.253Z,9.08
2023-02-24T04:48:46.269Z,9.13
2023-02-24T04:49:46.494Z,9.13
2023-02-24T04:50:49.125Z,9.02
2023-02-24T04:51:46.288Z,9.09
2023-02-24T04:52:46.290Z,9.11
2023-02-24T04:53:46.287Z,9.02
2023-02-24T04:54:46.275Z,8.97
2023-02-24T04:55:46.335Z,8.89
2023-02-24T04:56:49.428Z,9.09
2023-02-24T04:57:46.276Z,9.11
2023-02-24T04:58:46.259Z,9.15
2023-02-24T04:59:46.268Z,8.99
2023-02-24T05:00:46.278Z,9.09
2023-02-24T05:01:49.650Z,9.03
2023-02-24T05:02:46.283Z,9
2023-02-24T05:03:46.528Z,9.02
2023-02-24T05:04:46.484Z,9.03
2023-02-24T05:05:46.314Z,9.03
2023-02-24T05:06:46.531Z,9.15
2023-02-24T05:07:46.302Z,9.12
2023-02-24T05:08:46.344Z,8.92
2023-02-24T05:09:46.311Z,8.86
2023-02-24T05:10:46.322Z,8.96
2023-02-24T05:11:46.326Z,8.84
2023-02-24T05:12:49.125Z,8.84
2023-02-24T05:13:46.350Z,8.95
2023-02-24T05:14:46.310Z,8.96
2023-02-24T05:15:46.445Z,8.97
2023-02-24T05:16:46.387Z,8.97
2023-02-24T05:17:46.280Z,8.95
2023-02-24T05:18:46.308Z,8.92
2023-02-24T05:19:46.291Z,9.13
2023-02-24T05:20:46.295Z,9.05
2023-02-24T05:21:46.700Z,8.97
2023-02-24T05:22:46.381Z,9.03
2023-02-24T05:23:49.367Z,9.08
2023-02-24T05:24:46.355Z,8.92
2023-02-24T05:25:46.335Z,8.96
2023-02-24T05:26:46.659Z,8.96
2023-02-24T05:27:46.337Z,8.92
2023-02-24T05:28:46.327Z,8.96
2023-02-24T05:29:46.331Z,9
2023-02-24T05:30:46.625Z,8.99
2023-02-24T05:31:46.899Z,9.09
2023-02-24T05:32:46.494Z,8.95
2023-02-24T05:33:46.327Z,8.97
2023-02-24T05:34:51.875Z,9
2023-02-24T05:35:46.507Z,8.96
2023-02-24T05:36:46.424Z,8.92
2023-02-24T05:37:46.343Z,8.97
2023-02-24T05:38:46.491Z,8.95
2023-02-24T05:39:49.078Z,8.97
2023-02-24T05:40:46.362Z,8.93
2023-02-24T05:41:46.437Z,9
2023-02-24T05:42:46.347Z,8.95
2023-02-24T05:43:46.384Z,8.87
2023-02-24T05:44:46.366Z,8.95
2023-02-24T05:45:49.126Z,8.87
2023-02-24T05:46:46.467Z,8.92
2023-02-24T05:47:46.359Z,9
2023-02-24T05:48:46.367Z,9
2023-02-24T05:49:46.336Z,8.95
2023-02-24T05:50:46.354Z,9.09
2023-02-24T05:51:46.360Z,9.09
2023-02-24T05:52:46.356Z,9.08
2023-02-24T05:53:46.402Z,9
2023-02-24T05:54:46.507Z,9
2023-02-24T05:55:46.369Z,9
2023-02-24T05:56:49.454Z,9.03
2023-02-24T05:57:46.392Z,9.09
2023-02-24T05:58:46.346Z,9.02
2023-02-24T05:59:46.384Z,8.99
2023-02-24T06:00:46.381Z,8.9
2023-02-24T06:01:46.553Z,8.89
2023-02-24T06:02:46.469Z,8.92
2023-02-24T06:03:46.392Z,8.87
2023-02-24T06:04:46.384Z,8.84
2023-02-24T06:05:46.354Z,8.93
2023-02-24T06:06:46.392Z,8.81
2023-02-24T06:07:49.313Z,8.89
2023-02-24T06:08:46.357Z,8.77
2023-02-24T06:09:46.376Z,8.87
2023-02-24T06:10:46.370Z,8.86
2023-02-24T06:11:46.682Z,8.79
2023-02-24T06:12:46.444Z,8.78
2023-02-24T06:13:46.390Z,8.87
2023-02-24T06:14:46.386Z,8.84
2023-02-24T06:15:46.406Z,8.89
2023-02-24T06:16:46.707Z,8.79
2023-02-24T06:17:46.383Z,8.84
2023-02-24T06:18:46.403Z,8.89
2023-02-24T06:19:46.380Z,8.89
2023-02-24T06:20:46.389Z,8.71
2023-02-24T06:21:46.374Z,8.82
2023-02-24T06:22:46.424Z,8.78
2023-02-24T06:23:46.379Z,8.81
2023-02-24T06:24:46.394Z,8.69
2023-02-24T06:25:46.428Z,8.78
2023-02-24T06:26:46.411Z,8.82
2023-02-24T06:27:46.519Z,8.71
2023-02-24T06:28:46.466Z,8.75
2023-02-24T06:29:46.411Z,8.81
2023-02-24T06:30:46.675Z,8.74
2023-02-24T06:31:46.885Z,8.77
2023-02-24T06:32:46.881Z,8.69
2023-02-24T06:33:46.444Z,8.66
2023-02-24T06:34:46.435Z,8.77
2023-02-24T06:35:46.420Z,8.75
2023-02-24T06:36:46.446Z,8.77
2023-02-24T06:37:46.529Z,8.78
2023-02-24T06:38:46.422Z,8.75
2023-02-24T06:39:49.568Z,8.71
2023-02-24T06:40:46.437Z,8.93
2023-02-24T06:41:46.436Z,8.9
2023-02-24T06:42:46.434Z,8.95
2023-02-24T06:43:46.457Z,8.77
2023-02-24T06:44:46.767Z,8.84
2023-02-24T06:45:46.570Z,8.77
2023-02-24T06:46:46.445Z,8.77
2023-02-24T06:47:46.538Z,8.79
2023-02-24T06:48:46.433Z,8.9
2023-02-24T06:49:46.468Z,8.84
2023-02-24T06:50:50.023Z,8.79
2023-02-24T06:51:46.421Z,8.86
2023-02-24T06:52:46.462Z,8.78
2023-02-24T06:53:46.501Z,8.87
2023-02-24T06:54:46.472Z,8.77
2023-02-24T06:55:46.577Z,8.77
2023-02-24T06:56:46.420Z,8.99
2023-02-24T06:57:46.563Z,8.89
2023-02-24T06:58:46.467Z,8.99
2023-02-24T06:59:46.592Z,8.89
2023-02-24T07:00:46.553Z,8.93
2023-02-24T07:01:49.389Z,8.99
2023-02-24T07:02:46.517Z,8.96
2023-02-24T07:03:46.486Z,8.95
2023-02-24T07:04:46.664Z,8.92
2023-02-24T07:05:46.479Z,8.96
2023-02-24T07:06:49.561Z,8.93
2023-02-24T07:07:46.469Z,8.89
2023-02-24T07:08:46.472Z,8.89
2023-02-24T07:09:46.502Z,9
2023-02-24T07:10:46.491Z,8.82
2023-02-24T07:11:48.988Z,8.87
2023-02-24T07:12:49.525Z,8.87
2023-02-24T07:13:46.337Z,8.9
2023-02-24T07:14:46.485Z,8.87
2023-02-24T07:15:46.446Z,8.9
2023-02-24T07:16:46.691Z,8.84
2023-02-24T07:17:49.928Z,8.97
2023-02-24T07:18:46.491Z,8.9
2023-02-24T07:19:46.583Z,8.89
2023-02-24T07:20:46.479Z,8.9
2023-02-24T07:21:46.526Z,8.87
2023-02-24T07:22:46.500Z,9
2023-02-24T07:23:49.434Z,8.95
2023-02-24T07:24:46.711Z,8.81
2023-02-24T07:25:46.558Z,8.87
2023-02-24T07:26:46.500Z,8.87
2023-02-24T07:27:46.523Z,8.87
2023-02-24T07:28:49.436Z,8.95
2023-02-24T07:29:46.533Z,8.89
2023-02-24T07:30:46.747Z,8.92
2023-02-24T07:31:47.336Z,8.9
2023-02-24T07:32:46.774Z,8.96
2023-02-24T07:33:46.517Z,8.96
2023-02-24T07:34:46.618Z,9.13
2023-02-24T07:35:46.506Z,9.13
2023-02-24T07:36:46.514Z,9.09
2023-02-24T07:37:46.554Z,9.02
2023-02-24T07:38:46.499Z,8.97
2023-02-24T07:39:49.501Z,9.05
2023-02-24T07:40:46.511Z,9.02
2023-02-24T07:41:46.534Z,9.08
2023-02-24T07:42:46.521Z,9.09
2023-02-24T07:43:46.518Z,9.16
2023-02-24T07:44:46.932Z,9.16
2023-02-24T07:45:46.669Z,8.96
2023-02-24T07:46:46.517Z,9.03
2023-02-24T07:47:46.625Z,9.11
2023-02-24T07:48:46.581Z,9.12
2023-02-24T07:49:46.515Z,9.15
2023-02-24T07:50:52.247Z,9.24
2023-02-24T07:51:46.738Z,9.27
2023-02-24T07:52:46.556Z,9.22
2023-02-24T07:53:46.559Z,9.18
2023-02-24T07:54:46.602Z,9.16
2023-02-24T07:55:46.533Z,9.11
2023-02-24T07:56:46.524Z,9.27
2023-02-24T07:57:46.622Z,9.18
2023-02-24T07:58:46.548Z,9.3
2023-02-24T07:59:46.537Z,9.27
2023-02-24T08:00:46.376Z,9.24
2023-02-24T08:01:49.531Z,9.34
2023-02-24T08:02:46.915Z,9.29
2023-02-24T08:03:46.560Z,9.22
2023-02-24T08:04:46.576Z,9.26
2023-02-24T08:05:46.837Z,9.44
2023-02-24T08:06:49.852Z,9.42
2023-02-24T08:07:46.608Z,9.36
2023-02-24T08:08:46.533Z,9.33
2023-02-24T08:09:46.926Z,9.26
2023-02-24T08:10:46.547Z,9.36
2023-02-24T08:11:46.545Z,9.27
2023-02-24T08:12:48.427Z,9.26
2023-02-24T08:13:46.592Z,9.31
2023-02-24T08:14:46.549Z,9.33
2023-02-24T08:15:46.607Z,9.37
2023-02-24T08:16:46.721Z,9.45
2023-02-24T08:17:46.568Z,9.44
2023-02-24T08:18:46.585Z,9.27
2023-02-24T08:19:46.611Z,9.29
2023-02-24T08:20:46.579Z,9.49
2023-02-24T08:21:46.637Z,9.49
2023-02-24T08:22:46.591Z,9.55
2023-02-24T08:23:49.767Z,9.54
2023-02-24T08:24:46.566Z,9.58
2023-02-24T08:25:46.579Z,9.62
2023-02-24T08:26:46.627Z,9.49
2023-02-24T08:27:49.387Z,9.44
2023-02-24T08:28:46.598Z,9.47
2023-02-24T08:29:46.599Z,9.37
2023-02-24T08:30:47.100Z,9.52
2023-02-24T08:31:47.024Z,9.56
2023-02-24T08:32:47.178Z,9.58
2023-02-24T08:33:46.606Z,9.56
2023-02-24T08:34:49.402Z,9.66
2023-02-24T08:35:47.396Z,9.56
2023-02-24T08:36:46.613Z,9.58
2023-02-24T08:37:46.623Z,9.39
2023-02-24T08:38:47.146Z,9.44
2023-02-24T08:39:46.613Z,9.52
2023-02-24T08:40:46.589Z,9.64
2023-02-24T08:41:46.615Z,9.49
2023-02-24T08:42:46.608Z,9.56
2023-02-24T08:43:46.612Z,9.52
2023-02-24T08:44:47.139Z,9.58
2023-02-24T08:45:46.606Z,9.66
2023-02-24T08:46:46.813Z,9.66
2023-02-24T08:47:46.680Z,9.67
2023-02-24T08:48:46.649Z,9.7
2023-02-24T08:49:49.242Z,9.69
2023-02-24T08:50:46.653Z,9.77
2023-02-24T08:51:46.653Z,9.73
2023-02-24T08:52:46.693Z,9.74
2023-02-24T08:53:47.110Z,9.72
2023-02-24T08:54:46.623Z,9.81
2023-02-24T08:55:46.682Z,9.73
2023-02-24T08:56:46.620Z,9.66
2023-02-24T08:57:46.666Z,9.77
2023-02-24T08:58:46.663Z,9.81
2023-02-24T08:59:46.678Z,9.74
2023-02-24T09:00:46.919Z,9.77
2023-02-24T09:02:04.067Z,9.8
2023-02-24T09:02:46.678Z,9.87
2023-02-24T09:03:46.662Z,9.87
2023-02-24T09:04:46.842Z,9.94
2023-02-24T09:05:46.664Z,9.84
2023-02-24T09:06:52.521Z,9.97
2023-02-24T09:07:46.711Z,9.97
2023-02-24T09:08:46.669Z,9.97
2023-02-24T09:09:46.722Z,9.95
2023-02-24T09:10:46.651Z,9.99
2023-02-24T09:11:46.819Z,9.92
2023-02-24T09:12:46.705Z,9.9
2023-02-24T09:13:46.678Z,9.91
2023-02-24T09:14:46.659Z,9.94
2023-02-24T09:15:46.690Z,9.94
2023-02-24T09:16:46.878Z,9.95
2023-02-24T09:17:48.175Z,10.06
2023-02-24T09:18:46.665Z,10.05
2023-02-24T09:19:46.684Z,10
2023-02-24T09:20:46.723Z,10
2023-02-24T09:21:46.701Z,9.99
2023-02-24T09:22:46.739Z,10
2023-02-24T09:23:46.707Z,9.97
2023-02-24T09:24:46.700Z,9.94
2023-02-24T09:25:46.549Z,10.03
2023-02-24T09:26:46.687Z,10.02
2023-02-24T09:27:46.723Z,10.02
2023-02-24T09:28:49.684Z,10.07
2023-02-24T09:29:46.684Z,10.1
2023-02-24T09:30:46.779Z,10.18
2023-02-24T09:31:47.225Z,10.1
2023-02-24T09:32:47.162Z,10.09
2023-02-24T09:33:49.526Z,10.07
2023-02-24T09:34:46.712Z,10.09
2023-02-24T09:35:46.767Z,10.13
2023-02-24T09:36:47.401Z,10.17
2023-02-24T09:37:46.696Z,10.27
2023-02-24T09:38:46.706Z,10.25
2023-02-24T09:39:49.760Z,10.24
2023-02-24T09:40:46.721Z,10.27
2023-02-24T09:41:46.714Z,10.27
2023-02-24T09:42:46.725Z,10.39
2023-02-24T09:43:46.728Z,10.38
2023-02-24T09:44:49.766Z,10.45
2023-02-24T09:45:47.155Z,10.42
2023-02-24T09:46:47.054Z,10.49
2023-02-24T09:47:46.768Z,10.34
2023-02-24T09:48:46.723Z,10.34
2023-02-24T09:49:46.810Z,10.48
2023-02-24T09:51:07.627Z,10.58
2023-02-24T09:51:46.768Z,10.48
2023-02-24T09:52:46.763Z,10.55
2023-02-24T09:53:46.733Z,10.67
2023-02-24T09:54:46.738Z,10.65
2023-02-24T09:55:49.505Z,10.62
2023-02-24T09:56:46.735Z,10.68
2023-02-24T09:57:47.009Z,10.77
2023-02-24T09:58:48.856Z,10.68
2023-02-24T09:59:48.855Z,10.69
2023-02-24T10:00:46.923Z,10.69
2023-02-24T10:01:46.758Z,10.71
2023-02-24T10:02:47.189Z,10.71
2023-02-24T10:03:46.782Z,10.76
2023-02-24T10:04:46.727Z,10.76
2023-02-24T10:05:49.183Z,10.89
2023-02-24T10:06:49.752Z,10.84
2023-02-24T10:07:46.751Z,10.94
2023-02-24T10:08:46.730Z,10.95
2023-02-24T10:09:46.782Z,10.94
2023-02-24T10:10:46.812Z,10.79
2023-02-24T10:11:48.435Z,10.86
2023-02-24T10:12:46.745Z,10.9
2023-02-24T10:13:46.800Z,10.98
2023-02-24T10:14:53.988Z,11.01
2023-02-24T10:15:46.852Z,10.97
2023-02-24T10:16:47.003Z,11.13
2023-02-24T10:17:49.697Z,11.08
2023-02-24T10:18:46.774Z,10.97
2023-02-24T10:19:46.751Z,11.18
2023-02-24T10:20:46.943Z,11.22
2023-02-24T10:21:46.749Z,11.22
2023-02-24T10:22:46.762Z,11.3
2023-02-24T10:23:54.780Z,11.26
2023-02-24T10:24:46.754Z,11.25
2023-02-24T10:25:46.844Z,11.31
2023-02-24T10:27:16.645Z,11.27
2023-02-24T10:27:46.778Z,11.49
2023-02-24T10:28:48.509Z,11.53
2023-02-24T10:29:49.537Z,11.55
2023-02-24T10:30:47.224Z,11.6
2023-02-24T10:31:47.635Z,11.58
2023-02-24T10:32:47.248Z,11.7
2023-02-24T10:33:46.800Z,11.83
2023-02-24T10:34:46.798Z,11.68
2023-02-24T10:35:46.784Z,11.73
2023-02-24T10:36:46.767Z,11.85
2023-02-24T10:37:46.771Z,11.65
2023-02-24T10:38:46.795Z,11.71
2023-02-24T10:39:51.795Z,11.7
2023-02-24T10:40:46.816Z,11.65
2023-02-24T10:41:46.949Z,11.56
2023-02-24T10:42:46.860Z,11.52
2023-02-24T10:43:47.109Z,11.51
2023-02-24T10:45:01.909Z,11.63
2023-02-24T10:45:46.913Z,11.53
2023-02-24T10:46:48.874Z,11.62
2023-02-24T10:47:46.832Z,11.71
2023-02-24T10:48:47.431Z,11.85
2023-02-24T10:49:46.813Z,11.58
2023-02-24T10:50:59.840Z,11.65
2023-02-24T10:51:46.819Z,11.56
2023-02-24T10:52:46.793Z,11.6
2023-02-24T10:53:48.756Z,11.53
2023-02-24T10:54:47.005Z,11.63
2023-02-24T10:55:46.841Z,11.59
2023-02-24T10:56:47.247Z,11.7
2023-02-24T10:58:01.933Z,11.67
2023-02-24T10:58:46.843Z,11.56
2023-02-24T10:59:47.041Z,11.59
2023-02-24T11:00:46.876Z,11.68
2023-02-24T11:01:51.128Z,11.73
2023-02-24T11:02:46.996Z,11.83
2023-02-24T11:03:46.956Z,11.83
2023-02-24T11:04:46.817Z,11.83
2023-02-24T11:05:46.842Z,11.89
2023-02-24T11:06:47.037Z,11.59
2023-02-24T11:07:46.870Z,11.7
2023-02-24T11:08:46.849Z,11.77
2023-02-24T11:09:46.839Z,11.86
2023-02-24T11:10:46.848Z,11.7
2023-02-24T11:11:46.889Z,11.88
2023-02-24T11:12:46.827Z,12.12
2023-02-24T11:13:46.878Z,12.1
2023-02-24T11:14:46.879Z,12.17
2023-02-24T11:15:49.089Z,12.3
2023-02-24T11:16:46.883Z,12.36
2023-02-24T11:17:47.066Z,12.4
2023-02-24T11:18:46.857Z,12.45
2023-02-24T11:19:46.885Z,12.43
2023-02-24T11:20:53.853Z,12.53
2023-02-24T11:21:47.489Z,12.5
2023-02-24T11:22:46.852Z,12.57
2023-02-24T11:23:46.885Z,12.5
2023-02-24T11:24:46.889Z,12.68
2023-02-24T11:25:46.892Z,12.43
2023-02-24T11:26:46.871Z,12.33
2023-02-24T11:27:46.884Z,12.26
2023-02-24T11:28:46.867Z,12.3
2023-02-24T11:29:47.051Z,12.14
2023-02-24T11:30:47.345Z,12.21
2023-02-24T11:31:47.423Z,12.17
2023-02-24T11:32:47.158Z,12.18
2023-02-24T11:33:49.667Z,12.2
2023-02-24T11:34:46.904Z,12
2023-02-24T11:35:46.904Z,12.14
2023-02-24T11:36:46.929Z,11.96
2023-02-24T11:37:48.069Z,12.02
2023-02-24T11:38:46.881Z,11.97
2023-02-24T11:39:46.892Z,11.91
2023-02-24T11:40:46.874Z,11.91
2023-02-24T11:41:46.865Z,11.93
2023-02-24T11:42:46.861Z,11.85
2023-02-24T11:43:46.937Z,11.78
2023-02-24T11:44:49.996Z,11.88
2023-02-24T11:45:46.937Z,11.88
2023-02-24T11:46:47.148Z,11.81
2023-02-24T11:47:46.940Z,11.97
2023-02-24T11:48:46.944Z,11.59
2023-02-24T11:49:46.933Z,11.93
2023-02-24T11:50:46.917Z,11.99
2023-02-24T11:51:46.922Z,12.03
2023-02-24T11:52:46.929Z,12.05
2023-02-24T11:53:47.038Z,12.12
2023-02-24T11:54:46.948Z,12.11
2023-02-24T11:55:49.667Z,12.17
2023-02-24T11:56:46.910Z,12.05
2023-02-24T11:57:46.927Z,12.14
2023-02-24T11:58:46.902Z,11.95
2023-02-24T11:59:47.013Z,11.85
2023-02-24T12:00:52.576Z,11.88
2023-02-24T12:01:46.936Z,11.97
2023-02-24T12:02:47.121Z,11.97
2023-02-24T12:03:46.922Z,12.03
2023-02-24T12:04:46.972Z,11.97
2023-02-24T12:05:47.229Z,12
2023-02-24T12:06:49.985Z,12.03
2023-02-24T12:07:46.979Z,12.12
2023-02-24T12:08:46.959Z,12.05
2023-02-24T12:09:46.960Z,12.17
2023-02-24T12:10:46.970Z,12.35
2023-02-24T12:11:49.709Z,12.33
2023-02-24T12:12:46.985Z,12.4
2023-02-24T12:13:46.941Z,12.61
2023-02-24T12:14:46.993Z,12.4
2023-02-24T12:15:46.968Z,12.39
2023-02-24T12:16:47.113Z,12.55
2023-02-24T12:17:50.034Z,12.75
2023-02-24T12:18:46.996Z,12.66
2023-02-24T12:19:46.975Z,12.86
2023-02-24T12:20:46.955Z,12.81
2023-02-24T12:21:46.978Z,12.81
2023-02-24T12:22:53.173Z,12.8
2023-02-24T12:23:46.960Z,12.93
2023-02-24T12:24:46.979Z,13.05
2023-02-24T12:25:46.949Z,13.2
2023-02-24T12:26:47.084Z,13.26
2023-02-24T12:27:47.030Z,13.47
2023-02-24T12:28:46.963Z,13.54
2023-02-24T12:29:47.191Z,13.76
2023-02-24T12:30:47.178Z,13.83
2023-02-24T12:31:47.447Z,13.85
2023-02-24T12:32:48.314Z,13.76
2023-02-24T12:33:49.834Z,13.85
2023-02-24T12:34:47.025Z,14.07
2023-02-24T12:35:46.974Z,14.26
2023-02-24T12:36:47.040Z,14.25
2023-02-24T12:37:46.964Z,14.31
2023-02-24T12:38:46.984Z,14.22
2023-02-24T12:39:47.005Z,14.2
2023-02-24T12:40:46.977Z,14
2023-02-24T12:41:46.991Z,13.95
2023-02-24T12:42:46.997Z,13.95
2023-02-24T12:43:46.976Z,13.76
2023-02-24T12:44:50.087Z,13.7
2023-02-24T12:45:47.185Z,13.58
2023-02-24T12:46:46.985Z,13.49
2023-02-24T12:47:47.003Z,13.45
2023-02-24T12:48:47.050Z,13.3
2023-02-24T12:49:47.056Z,13.42
2023-02-24T12:50:47.005Z,13.3
2023-02-24T12:51:47.054Z,13.17
2023-02-24T12:52:46.993Z,12.93
2023-02-24T12:53:47.015Z,12.72
2023-02-24T12:54:47.058Z,12.69
2023-02-24T12:55:50.074Z,12.61
2023-02-24T12:56:47.024Z,12.48
2023-02-24T12:57:47.048Z,12.66
2023-02-24T12:58:47.196Z,12.69
2023-02-24T12:59:47.084Z,12.62
2023-02-24T13:00:47.175Z,12.58
2023-02-24T13:01:46.990Z,12.58
2023-02-24T13:02:47.104Z,12.48
2023-02-24T13:03:47.030Z,12.5
2023-02-24T13:04:47.120Z,12.39
2023-02-24T13:05:47.029Z,12.29
2023-02-24T13:06:50.272Z,12.29
2023-02-24T13:07:47.015Z,12.36
2023-02-24T13:08:47.039Z,12.28
2023-02-24T13:09:47.068Z,12.37
2023-02-24T13:10:47.036Z,12.32
2023-02-24T13:11:47.041Z,12.36
2023-02-24T13:12:47.052Z,12.33
2023-02-24T13:13:47.033Z,12.29
2023-02-24T13:14:47.041Z,12.35
2023-02-24T13:15:47.045Z,12.43